createdAt,value
2018-12-07T00:00:28.303Z,83.28
2018-12-07T00:01:28.264Z,83.39
2018-12-07T00:02:28.252Z,83.07
2018-12-07T00:03:28.247Z,83.28
2018-12-07T00:04:28.230Z,83.39
2018-12-07T00:05:28.218Z,83.34
2018-12-07T00:06:28.214Z,83.39
2018-12-07T00:07:28.194Z,83.18
2018-12-07T00:08:28.185Z,83.18
2018-12-07T00:09:28.177Z,83.39
2018-12-07T00:10:28.166Z,83.18
2018-12-07T00:11:28.161Z,83.07
2018-12-07T00:12:28.139Z,82.97
2018-12-07T00:13:28.128Z,82.97
2018-12-07T00:14:28.120Z,82.87
2018-12-07T00:15:28.112Z,82.83
2018-12-07T00:16:28.102Z,82.87
2018-12-07T00:17:28.084Z,83.18
2018-12-07T00:18:28.071Z,83.14
2018-12-07T00:19:28.059Z,83.07
2018-12-07T00:20:28.055Z,83.18
2018-12-07T00:21:28.057Z,82.63
2018-12-07T00:22:28.028Z,82.87
2018-12-07T00:23:28.021Z,82.53
2018-12-07T00:24:28.005Z,82.83
2018-12-07T00:25:27.994Z,82.93
2018-12-07T00:26:27.999Z,82.93
2018-12-07T00:27:27.971Z,82.63
2018-12-07T00:28:27.960Z,83.14
2018-12-07T00:29:27.949Z,82.93
2018-12-07T00:30:27.938Z,82.93
2018-12-07T00:31:28.732Z,83.04
2018-12-07T00:32:27.916Z,82.83
2018-12-07T00:33:27.906Z,82.83
2018-12-07T00:34:27.898Z,82.93
2018-12-07T00:35:27.882Z,82.53
2018-12-07T00:36:27.883Z,82.63
2018-12-07T00:37:27.863Z,82.73
2018-12-07T00:38:27.850Z,82.93
2018-12-07T00:39:27.838Z,82.83
2018-12-07T00:40:27.829Z,82.83
2018-12-07T00:41:27.825Z,83.04
2018-12-07T00:42:27.805Z,82.53
2018-12-07T00:43:27.793Z,82.32
2018-12-07T00:44:27.779Z,82.42
2018-12-07T00:45:27.768Z,82.32
2018-12-07T00:46:27.806Z,82.63
2018-12-07T00:47:27.749Z,82.53
2018-12-07T00:48:27.736Z,82.53
2018-12-07T00:49:27.726Z,82.63
2018-12-07T00:50:27.712Z,82.42
2018-12-07T00:51:27.702Z,82.42
2018-12-07T00:52:27.702Z,82.42
2018-12-07T00:53:27.678Z,82.42
2018-12-07T00:54:27.667Z,82.49
2018-12-07T00:55:27.655Z,82.22
2018-12-07T00:56:27.643Z,82.42
2018-12-07T00:57:27.645Z,82.53
2018-12-07T00:58:27.623Z,82.63
2018-12-07T00:59:27.614Z,82.73
2018-12-07T01:00:27.603Z,82.73
2018-12-07T01:01:27.590Z,81.91
2018-12-07T01:02:27.592Z,81.91
2018-12-07T01:03:27.566Z,81.87
2018-12-07T01:04:27.610Z,82.18
2018-12-07T01:05:27.541Z,82.22
2018-12-07T01:06:27.538Z,82.39
2018-12-07T01:07:27.532Z,82.49
2018-12-07T01:08:27.509Z,82.53
2018-12-07T01:09:27.497Z,82.08
2018-12-07T01:10:27.487Z,82.12
2018-12-07T01:11:27.474Z,82.12
2018-12-07T01:12:27.474Z,82.18
2018-12-07T01:13:27.455Z,82.12
2018-12-07T01:14:27.440Z,81.98
2018-12-07T01:15:27.432Z,82.08
2018-12-07T01:16:27.418Z,82.08
2018-12-07T01:17:27.420Z,82.08
2018-12-07T01:18:27.395Z,82.18
2018-12-07T01:19:27.383Z,81.98
2018-12-07T01:20:27.377Z,81.98
2018-12-07T01:21:27.361Z,82.28
2018-12-07T01:22:27.361Z,81.98
2018-12-07T01:23:27.337Z,82.28
2018-12-07T01:24:27.328Z,82.08
2018-12-07T01:25:27.315Z,81.36
2018-12-07T01:26:27.307Z,81.36
2018-12-07T01:27:27.367Z,81.26
2018-12-07T01:28:27.281Z,81.67
2018-12-07T01:29:27.278Z,81.77
2018-12-07T01:30:27.263Z,81.57
2018-12-07T01:31:27.247Z,81.57
2018-12-07T01:32:27.276Z,81.57
2018-12-07T01:33:27.225Z,81.67
2018-12-07T01:34:27.212Z,81.46
2018-12-07T01:35:27.200Z,81.57
2018-12-07T01:36:27.199Z,81.67
2018-12-07T01:37:27.181Z,81.87
2018-12-07T01:38:27.177Z,81.67
2018-12-07T01:39:27.161Z,81.77
2018-12-07T01:40:27.152Z,81.46
2018-12-07T01:41:27.133Z,81.77
2018-12-07T01:42:27.123Z,81.67
2018-12-07T01:43:27.120Z,81.63
2018-12-07T01:44:27.190Z,81.77
2018-12-07T01:45:27.091Z,81.63
2018-12-07T01:46:27.075Z,81.52
2018-12-07T01:47:27.072Z,81.15
2018-12-07T01:48:27.064Z,81.12
2018-12-07T01:49:27.048Z,81.26
2018-12-07T01:50:27.033Z,81.63
2018-12-07T01:51:27.024Z,81.36
2018-12-07T01:52:27.010Z,81.32
2018-12-07T01:53:27.009Z,81.63
2018-12-07T01:54:26.989Z,81.52
2018-12-07T01:55:26.974Z,81.57
2018-12-07T01:56:26.964Z,82.04
2018-12-07T01:57:26.952Z,82.24
2018-12-07T01:58:26.964Z,81.94
2018-12-07T01:59:26.934Z,82.04
2018-12-07T02:00:26.918Z,82.45
2018-12-07T02:01:26.907Z,82.49
2018-12-07T02:02:26.893Z,82.04
2018-12-07T02:03:26.903Z,82.24
2018-12-07T02:04:26.873Z,82.14
2018-12-07T02:05:26.867Z,82.39
2018-12-07T02:06:26.849Z,82.24
2018-12-07T02:07:26.839Z,82.24
2018-12-07T02:08:26.842Z,82.18
2018-12-07T02:09:26.814Z,82.24
2018-12-07T02:10:26.805Z,82.14
2018-12-07T02:11:26.793Z,82.14
2018-12-07T02:12:26.787Z,82.04
2018-12-07T02:13:26.816Z,82.24
2018-12-07T02:14:26.761Z,82.86
2018-12-07T02:15:26.746Z,82.45
2018-12-07T02:16:26.734Z,82.24
2018-12-07T02:17:26.724Z,82.86
2018-12-07T02:18:26.712Z,82.65
2018-12-07T02:19:26.714Z,82.69
2018-12-07T02:20:26.688Z,82.69
2018-12-07T02:21:26.679Z,82.65
2018-12-07T02:22:26.670Z,82.65
2018-12-07T02:23:26.662Z,82.86
2018-12-07T02:24:26.654Z,82.65
2018-12-07T02:25:26.631Z,82.35
2018-12-07T02:26:26.620Z,82.35
2018-12-07T02:27:26.613Z,82.59
2018-12-07T02:28:26.598Z,82.65
2018-12-07T02:29:26.600Z,82.35
2018-12-07T02:30:26.576Z,82.14
2018-12-07T02:31:26.564Z,82.55
2018-12-07T02:32:26.553Z,82.76
2018-12-07T02:33:26.543Z,82.65
2018-12-07T02:34:26.550Z,82.65
2018-12-07T02:35:26.518Z,82.65
2018-12-07T02:36:26.508Z,82.45
2018-12-07T02:37:26.497Z,82.45
2018-12-07T02:38:26.488Z,83.06
2018-12-07T02:39:26.486Z,82.86
2018-12-07T02:40:26.463Z,83.27
2018-12-07T02:41:26.451Z,83.37
2018-12-07T02:42:26.443Z,83.47
2018-12-07T02:43:26.436Z,83.78
2018-12-07T02:44:26.433Z,84.19
2018-12-07T02:45:26.406Z,84.09
2018-12-07T02:46:26.394Z,83.78
2018-12-07T02:47:26.381Z,83.88
2018-12-07T02:48:26.371Z,84.39
2018-12-07T02:49:26.369Z,84.80
2018-12-07T02:50:26.351Z,85.22
2018-12-07T02:51:26.350Z,84.60
2018-12-07T02:52:26.325Z,85.01
2018-12-07T02:53:26.314Z,85.22
2018-12-07T02:54:26.337Z,85.63
2018-12-07T02:55:26.291Z,85.72
2018-12-07T02:56:26.279Z,86.14
2018-12-07T02:57:26.269Z,85.93
2018-12-07T02:58:26.257Z,86.34
2018-12-07T02:59:26.246Z,86.55
2018-12-07T03:00:26.246Z,86.44
2018-12-07T03:01:26.226Z,86.24
2018-12-07T03:02:26.212Z,86.34
2018-12-07T03:03:26.201Z,86.44
2018-12-07T03:04:26.189Z,86.34
2018-12-07T03:05:26.189Z,86.28
2018-12-07T03:06:26.168Z,86.48
2018-12-07T03:07:26.155Z,86.75
2018-12-07T03:08:26.144Z,86.58
2018-12-07T03:09:26.133Z,86.69
2018-12-07T03:10:26.133Z,86.28
2018-12-07T03:11:26.143Z,87.06
2018-12-07T03:12:26.098Z,87.06
2018-12-07T03:13:26.087Z,86.90
2018-12-07T03:14:26.078Z,86.18
2018-12-07T03:15:26.076Z,86.38
2018-12-07T03:16:26.053Z,86.48
2018-12-07T03:17:26.043Z,86.48
2018-12-07T03:18:26.033Z,87.51
2018-12-07T03:19:26.023Z,86.90
2018-12-07T03:20:26.019Z,87.67
2018-12-07T03:21:25.998Z,86.79
2018-12-07T03:22:25.985Z,86.75
2018-12-07T03:23:25.974Z,86.85
2018-12-07T03:24:25.963Z,86.65
2018-12-07T03:25:25.963Z,86.85
2018-12-07T03:26:25.941Z,86.75
2018-12-07T03:27:25.935Z,86.75
2018-12-07T03:28:25.921Z,86.90
2018-12-07T03:29:25.907Z,87.06
2018-12-07T03:30:25.931Z,87.10
2018-12-07T03:31:25.887Z,87.26
2018-12-07T03:32:25.877Z,88.02
2018-12-07T03:33:25.864Z,87.10
2018-12-07T03:34:25.851Z,87.30
2018-12-07T03:35:25.847Z,87.30
2018-12-07T03:36:25.842Z,86.99
2018-12-07T03:37:25.815Z,87.41
2018-12-07T03:38:25.804Z,87.51
2018-12-07T03:39:25.793Z,87.41
2018-12-07T03:40:25.782Z,87.20
2018-12-07T03:41:26.491Z,87.82
2018-12-07T03:42:25.759Z,87.16
2018-12-07T03:43:25.747Z,87.71
2018-12-07T03:44:25.735Z,87.71
2018-12-07T03:45:25.724Z,88.02
2018-12-07T03:46:25.724Z,87.92
2018-12-07T03:47:25.703Z,87.77
2018-12-07T03:48:25.690Z,87.92
2018-12-07T03:49:25.679Z,87.82
2018-12-07T03:50:25.669Z,87.71
2018-12-07T03:51:25.669Z,87.82
2018-12-07T03:52:25.647Z,87.71
2018-12-07T03:53:25.676Z,87.92
2018-12-07T03:54:25.685Z,87.92
2018-12-07T03:55:25.613Z,87.71
2018-12-07T03:56:25.625Z,87.20
2018-12-07T03:57:25.596Z,87.82
2018-12-07T03:58:25.577Z,87.92
2018-12-07T03:59:25.565Z,87.92
2018-12-07T04:00:25.556Z,87.92
2018-12-07T04:01:25.556Z,87.82
2018-12-07T04:02:25.531Z,88.02
2018-12-07T04:03:25.520Z,87.92
2018-12-07T04:04:25.509Z,87.20
2018-12-07T04:05:25.498Z,86.90
2018-12-07T04:06:25.527Z,87.37
2018-12-07T04:07:25.475Z,87.26
2018-12-07T04:08:25.465Z,88.02
2018-12-07T04:09:25.465Z,87.88
2018-12-07T04:10:25.450Z,87.88
2018-12-07T04:11:25.430Z,88.02
2018-12-07T04:12:25.431Z,88.02
2018-12-07T04:13:25.409Z,87.88
2018-12-07T04:14:25.399Z,88.02
2018-12-07T04:15:25.383Z,87.92
2018-12-07T04:16:25.375Z,87.71
2018-12-07T04:17:25.374Z,87.51
2018-12-07T04:18:25.351Z,87.67
2018-12-07T04:19:25.337Z,87.67
2018-12-07T04:20:25.328Z,88.12
2018-12-07T04:21:25.314Z,87.67
2018-12-07T04:22:25.313Z,87.98
2018-12-07T04:23:25.293Z,87.88
2018-12-07T04:24:25.281Z,88.08
2018-12-07T04:25:25.270Z,87.98
2018-12-07T04:26:25.258Z,87.98
2018-12-07T04:27:25.267Z,87.71
2018-12-07T04:28:25.234Z,87.67
2018-12-07T04:29:25.224Z,87.98
2018-12-07T04:30:25.213Z,88.08
2018-12-07T04:31:25.204Z,87.67
2018-12-07T04:32:25.206Z,87.82
2018-12-07T04:33:25.182Z,88.23
2018-12-07T04:34:25.166Z,87.88
2018-12-07T04:35:25.157Z,88.18
2018-12-07T04:36:25.988Z,88.43
2018-12-07T04:37:25.154Z,88.29
2018-12-07T04:38:25.179Z,88.49
2018-12-07T04:39:25.113Z,88.39
2018-12-07T04:40:25.102Z,88.29
2018-12-07T04:41:25.089Z,88.29
2018-12-07T04:42:25.108Z,88.90
2018-12-07T04:43:25.069Z,88.18
2018-12-07T04:44:25.055Z,88.84
2018-12-07T04:45:25.044Z,88.80
2018-12-07T04:46:25.033Z,88.80
2018-12-07T04:47:25.023Z,89.31
2018-12-07T04:48:25.022Z,89.25
2018-12-07T04:49:25.013Z,89.21
2018-12-07T04:50:24.987Z,89.11
2018-12-07T04:51:24.976Z,89.00
2018-12-07T04:52:24.964Z,89.00
2018-12-07T04:53:24.964Z,89.21
2018-12-07T04:54:24.944Z,89.11
2018-12-07T04:55:24.929Z,89.21
2018-12-07T04:56:24.919Z,89.31
2018-12-07T04:57:24.911Z,90.03
2018-12-07T04:58:24.904Z,90.13
2018-12-07T04:59:24.901Z,90.03
2018-12-07T05:00:24.876Z,90.03
2018-12-07T05:01:24.860Z,89.72
2018-12-07T05:02:24.848Z,89.72
2018-12-07T05:03:24.853Z,89.62
2018-12-07T05:04:24.833Z,89.76
2018-12-07T05:05:24.815Z,89.66
2018-12-07T05:06:24.804Z,89.83
2018-12-07T05:07:24.789Z,89.51
2018-12-07T05:08:24.790Z,90.23
2018-12-07T05:09:24.770Z,89.72
2018-12-07T05:10:24.758Z,89.92
2018-12-07T05:11:24.748Z,89.83
2018-12-07T05:12:24.735Z,89.66
2018-12-07T05:13:24.750Z,89.92
2018-12-07T05:14:24.714Z,90.03
2018-12-07T05:15:24.710Z,89.92
2018-12-07T05:16:24.690Z,90.03
2018-12-07T05:17:24.680Z,89.83
2018-12-07T05:18:24.669Z,89.72
2018-12-07T05:19:24.668Z,90.13
2018-12-07T05:20:24.646Z,90.23
2018-12-07T05:21:24.638Z,89.83
2018-12-07T05:22:24.625Z,89.83
2018-12-07T05:23:24.616Z,90.13
2018-12-07T05:24:24.613Z,89.83
2018-12-07T05:25:24.590Z,89.92
2018-12-07T05:26:24.582Z,90.37
2018-12-07T05:27:24.579Z,90.34
2018-12-07T05:28:24.555Z,89.83
2018-12-07T05:29:24.555Z,90.13
2018-12-07T05:30:24.532Z,90.54
2018-12-07T05:31:24.522Z,90.17
2018-12-07T05:32:24.521Z,90.13
2018-12-07T05:33:24.500Z,90.64
2018-12-07T05:34:24.497Z,90.58
2018-12-07T05:35:24.475Z,90.58
2018-12-07T05:36:24.465Z,90.58
2018-12-07T05:37:24.458Z,90.34
2018-12-07T05:38:31.463Z,89.87
2018-12-07T05:39:31.475Z,90.03
2018-12-07T05:40:31.443Z,90.44
2018-12-07T05:41:31.434Z,90.54
2018-12-07T05:42:31.422Z,90.13
2018-12-07T05:43:31.416Z,90.03
2018-12-07T05:44:31.408Z,90.23
2018-12-07T05:45:32.392Z,89.92
2018-12-07T05:46:31.372Z,90.13
2018-12-07T05:47:32.344Z,90.13
2018-12-07T05:48:24.338Z,90.34
2018-12-07T05:49:24.336Z,90.13
2018-12-07T05:50:31.362Z,90.13
2018-12-07T05:51:31.320Z,89.92
2018-12-07T05:52:24.283Z,90.03
2018-12-07T05:53:31.601Z,90.03
2018-12-07T05:54:31.304Z,89.83
2018-12-07T05:55:31.274Z,90.34
2018-12-07T05:56:31.363Z,90.03
2018-12-07T05:57:31.250Z,90.13
2018-12-07T05:58:31.238Z,90.23
2018-12-07T05:59:24.205Z,90.54
2018-12-07T06:00:31.237Z,90.54
2018-12-07T06:01:32.187Z,90.54
2018-12-07T06:02:31.807Z,90.54
2018-12-07T06:03:24.158Z,90.84
2018-12-07T06:04:24.148Z,90.54
2018-12-07T06:05:24.145Z,90.64
2018-12-07T06:06:24.142Z,90.44
2018-12-07T06:07:31.141Z,90.03
2018-12-07T06:08:31.126Z,90.44
2018-12-07T06:09:31.122Z,90.54
2018-12-07T06:10:31.116Z,90.75
2018-12-07T06:11:31.097Z,90.81
2018-12-07T06:12:31.084Z,90.64
2018-12-07T06:13:31.124Z,90.64
2018-12-07T06:14:31.057Z,90.70
2018-12-07T06:15:31.098Z,90.64
2018-12-07T06:16:32.023Z,90.30
2018-12-07T06:17:24.003Z,90.34
2018-12-07T06:18:31.014Z,90.39
2018-12-07T06:19:31.000Z,90.19
2018-12-07T06:20:32.627Z,90.64
2018-12-07T06:21:23.954Z,90.64
2018-12-07T06:22:31.264Z,90.70
2018-12-07T06:23:30.954Z,90.30
2018-12-07T06:24:23.921Z,90.50
2018-12-07T06:25:23.909Z,90.50
2018-12-07T06:26:30.932Z,90.60
2018-12-07T06:27:31.899Z,90.64
2018-12-07T06:28:30.898Z,90.50
2018-12-07T06:29:30.884Z,90.60
2018-12-07T06:30:23.854Z,90.60
2018-12-07T06:31:30.884Z,90.50
2018-12-07T06:32:23.829Z,90.60
2018-12-07T06:33:23.827Z,90.39
2018-12-07T06:34:23.806Z,90.30
2018-12-07T06:35:23.795Z,90.91
2018-12-07T06:36:23.793Z,90.19
2018-12-07T06:37:30.801Z,90.19
2018-12-07T06:38:23.761Z,90.19
2018-12-07T06:39:30.780Z,90.84
2018-12-07T06:40:30.762Z,90.81
2018-12-07T06:41:23.742Z,90.70
2018-12-07T06:42:30.740Z,90.81
2018-12-07T06:43:30.727Z,90.81
2018-12-07T06:44:30.720Z,90.81
2018-12-07T06:45:30.709Z,90.60
2018-12-07T06:46:30.710Z,90.81
2018-12-07T06:47:30.684Z,90.60
2018-12-07T06:48:30.671Z,90.70
2018-12-07T06:49:30.664Z,90.39
2018-12-07T06:50:30.658Z,90.30
2018-12-07T06:51:31.665Z,90.50
2018-12-07T06:52:23.603Z,90.39
2018-12-07T06:53:31.176Z,90.19
2018-12-07T06:54:23.581Z,90.50
2018-12-07T06:55:30.605Z,90.30
2018-12-07T06:56:30.582Z,90.70
2018-12-07T06:57:31.576Z,90.81
2018-12-07T06:58:30.566Z,90.39
2018-12-07T06:59:23.524Z,91.01
2018-12-07T07:00:23.512Z,90.30
2018-12-07T07:01:23.506Z,90.39
2018-12-07T07:02:23.501Z,91.01
2018-12-07T07:03:23.478Z,91.11
2018-12-07T07:04:23.468Z,90.70
2018-12-07T07:05:23.455Z,90.66
2018-12-07T07:06:23.445Z,90.70
2018-12-07T07:07:23.451Z,90.70
2018-12-07T07:08:23.421Z,90.77
2018-12-07T07:09:23.411Z,90.39
2018-12-07T07:10:23.399Z,90.66
2018-12-07T07:11:23.386Z,90.56
2018-12-07T07:12:23.388Z,90.45
2018-12-07T07:13:23.365Z,90.45
2018-12-07T07:14:23.353Z,90.25
2018-12-07T07:15:23.344Z,90.15
2018-12-07T07:16:23.382Z,90.15
2018-12-07T07:17:23.347Z,89.74
2018-12-07T07:18:23.310Z,89.74
2018-12-07T07:19:23.296Z,89.94
2018-12-07T07:20:23.288Z,90.15
2018-12-07T07:21:23.273Z,89.94
2018-12-07T07:22:23.262Z,90.15
2018-12-07T07:23:23.262Z,90.15
2018-12-07T07:24:23.249Z,89.94
2018-12-07T07:25:23.227Z,89.64
2018-12-07T07:26:23.216Z,90.15
2018-12-07T07:27:23.207Z,90.25
2018-12-07T07:28:23.213Z,90.15
2018-12-07T07:29:23.187Z,89.84
2018-12-07T07:30:23.171Z,90.15
2018-12-07T07:31:23.162Z,89.64
2018-12-07T07:32:23.149Z,89.53
2018-12-07T07:33:23.148Z,90.05
2018-12-07T07:34:23.130Z,90.05
2018-12-07T07:35:23.118Z,89.84
2018-12-07T07:36:23.101Z,89.84
2018-12-07T07:37:23.095Z,89.50
2018-12-07T07:38:23.328Z,89.53
2018-12-07T07:39:23.067Z,89.64
2018-12-07T07:40:24.020Z,89.53
2018-12-07T07:41:23.049Z,89.64
2018-12-07T07:42:23.035Z,89.50
2018-12-07T07:43:23.035Z,89.74
2018-12-07T07:44:23.013Z,89.84
2018-12-07T07:45:23.003Z,89.84
2018-12-07T07:46:22.993Z,89.84
2018-12-07T07:47:22.978Z,89.53
2018-12-07T07:48:22.976Z,88.88
2018-12-07T07:49:22.956Z,89.29
2018-12-07T07:50:22.943Z,89.09
2018-12-07T07:51:22.936Z,89.09
2018-12-07T07:52:22.933Z,89.18
2018-12-07T07:53:22.924Z,89.12
2018-12-07T07:54:22.898Z,89.09
2018-12-07T07:55:22.891Z,89.33
2018-12-07T07:56:22.897Z,89.18
2018-12-07T07:57:22.870Z,89.18
2018-12-07T07:58:22.867Z,89.09
2018-12-07T07:59:22.843Z,88.98
2018-12-07T08:00:22.832Z,88.88
2018-12-07T08:01:22.821Z,88.68
2018-12-07T08:02:22.814Z,88.88
2018-12-07T08:03:22.809Z,88.68
2018-12-07T08:04:22.785Z,89.09
2018-12-07T08:05:22.774Z,88.98
2018-12-07T08:06:22.764Z,88.47
2018-12-07T08:07:22.751Z,88.57
2018-12-07T08:08:22.753Z,89.09
2018-12-07T08:09:22.733Z,88.41
2018-12-07T08:10:22.720Z,88.37
2018-12-07T08:11:22.709Z,88.78
2018-12-07T08:12:22.695Z,88.68
2018-12-07T08:13:22.696Z,88.57
2018-12-07T08:14:22.704Z,88.57
2018-12-07T08:15:22.661Z,88.57
2018-12-07T08:16:22.671Z,88.68
2018-12-07T08:17:22.638Z,88.57
2018-12-07T08:18:22.658Z,88.37
2018-12-07T08:19:22.616Z,88.98
2018-12-07T08:20:22.619Z,88.88
2018-12-07T08:21:22.594Z,88.68
2018-12-07T08:22:22.585Z,88.57
2018-12-07T08:23:22.572Z,88.78
2018-12-07T08:24:22.571Z,88.57
2018-12-07T08:25:22.556Z,88.57
2018-12-07T08:26:22.585Z,88.26
2018-12-07T08:27:22.529Z,88.37
2018-12-07T08:28:22.741Z,88.57
2018-12-07T08:29:22.519Z,88.78
2018-12-07T08:30:22.500Z,88.47
2018-12-07T08:31:22.482Z,88.78
2018-12-07T08:32:23.496Z,88.47
2018-12-07T08:33:22.459Z,88.47
2018-12-07T08:34:22.456Z,88.37
2018-12-07T08:35:22.436Z,88.57
2018-12-07T08:36:22.427Z,88.57
2018-12-07T08:37:22.414Z,88.26
2018-12-07T08:38:22.401Z,88.57
2018-12-07T08:39:22.401Z,88.37
2018-12-07T08:40:22.378Z,88.06
2018-12-07T08:41:22.367Z,88.02
2018-12-07T08:42:22.368Z,88.47
2018-12-07T08:43:22.345Z,88.26
2018-12-07T08:44:22.343Z,88.57
2018-12-07T08:45:22.320Z,88.26
2018-12-07T08:46:22.364Z,88.23
2018-12-07T08:47:22.297Z,88.06
2018-12-07T08:48:22.288Z,88.26
2018-12-07T08:49:22.282Z,88.02
2018-12-07T08:50:22.268Z,87.85
2018-12-07T08:51:22.252Z,88.02
2018-12-07T08:52:22.245Z,88.23
2018-12-07T08:53:22.234Z,88.33
2018-12-07T08:54:22.235Z,88.23
2018-12-07T08:55:22.209Z,88.23
2018-12-07T08:56:22.197Z,88.23
2018-12-07T08:57:22.186Z,88.47
2018-12-07T08:58:22.186Z,88.12
2018-12-07T08:59:22.203Z,88.84
2018-12-07T09:00:23.029Z,88.43
2018-12-07T09:01:22.165Z,88.33
2018-12-07T09:02:22.130Z,88.23
2018-12-07T09:03:22.119Z,88.33
2018-12-07T09:04:22.107Z,88.43
2018-12-07T09:05:22.111Z,88.53
2018-12-07T09:06:22.113Z,88.64
2018-12-07T09:07:22.073Z,88.23
2018-12-07T09:08:22.069Z,88.23
2018-12-07T09:09:22.062Z,88.64
2018-12-07T09:10:22.049Z,88.33
2018-12-07T09:11:22.030Z,88.02
2018-12-07T09:12:22.028Z,88.23
2018-12-07T09:13:22.006Z,88.43
2018-12-07T09:14:21.994Z,88.43
2018-12-07T09:15:30.224Z,88.02
2018-12-07T09:16:21.976Z,88.12
2018-12-07T09:17:21.985Z,88.12
2018-12-07T09:18:21.953Z,87.92
2018-12-07T09:19:21.938Z,88.12
2018-12-07T09:20:21.934Z,87.82
2018-12-07T09:21:21.935Z,87.82
2018-12-07T09:22:21.905Z,87.41
2018-12-07T09:23:21.892Z,87.92
2018-12-07T09:24:21.880Z,87.61
2018-12-07T09:25:21.891Z,88.02
2018-12-07T09:26:21.865Z,87.82
2018-12-07T09:27:21.850Z,87.57
2018-12-07T09:28:21.837Z,87.92
2018-12-07T09:29:21.824Z,87.71
2018-12-07T09:30:21.824Z,87.67
2018-12-07T09:31:21.803Z,87.67
2018-12-07T09:32:21.797Z,87.67
2018-12-07T09:33:21.782Z,87.57
2018-12-07T09:34:21.769Z,87.51
2018-12-07T09:35:21.771Z,87.57
2018-12-07T09:36:21.745Z,87.47
2018-12-07T09:37:22.566Z,87.77
2018-12-07T09:38:21.731Z,87.77
2018-12-07T09:39:21.710Z,87.57
2018-12-07T09:40:21.710Z,86.96
2018-12-07T09:41:21.688Z,86.76
2018-12-07T09:42:21.679Z,86.76
2018-12-07T09:43:21.667Z,86.55
2018-12-07T09:44:21.686Z,86.65
2018-12-07T09:45:21.710Z,86.65
2018-12-07T09:46:21.634Z,86.30
2018-12-07T09:47:21.622Z,86.04
2018-12-07T09:48:21.615Z,86.24
2018-12-07T09:49:21.602Z,86.51
2018-12-07T09:50:21.599Z,86.85
2018-12-07T09:51:21.587Z,86.41
2018-12-07T09:52:21.566Z,86.14
2018-12-07T09:53:21.553Z,85.94
2018-12-07T09:54:21.540Z,86.41
2018-12-07T09:55:21.537Z,86.24
2018-12-07T09:56:21.534Z,86.20
2018-12-07T09:57:21.507Z,86.96
2018-12-07T09:58:21.499Z,86.44
2018-12-07T09:59:21.484Z,86.14
2018-12-07T10:00:21.479Z,86.14
2018-12-07T10:01:21.476Z,87.67
2018-12-07T10:02:21.450Z,86.65
2018-12-07T10:03:21.441Z,86.65
2018-12-07T10:04:21.428Z,86.65
2018-12-07T10:05:21.425Z,86.51
2018-12-07T10:06:21.418Z,86.82
2018-12-07T10:07:21.395Z,86.96
2018-12-07T10:08:21.383Z,86.85
2018-12-07T10:09:21.373Z,86.76
2018-12-07T10:10:21.362Z,86.85
2018-12-07T10:11:21.367Z,86.85
2018-12-07T10:12:21.340Z,86.65
2018-12-07T10:13:21.328Z,86.61
2018-12-07T10:14:21.315Z,86.82
2018-12-07T10:15:21.302Z,86.51
2018-12-07T10:16:21.307Z,86.61
2018-12-07T10:17:21.285Z,86.91
2018-12-07T10:18:21.272Z,86.76
2018-12-07T10:19:21.259Z,86.51
2018-12-07T10:20:21.249Z,86.51
2018-12-07T10:21:21.244Z,86.51
2018-12-07T10:22:21.238Z,86.61
2018-12-07T10:23:21.214Z,86.61
2018-12-07T10:24:22.056Z,86.71
2018-12-07T10:25:21.193Z,86.10
2018-12-07T10:26:21.182Z,86.00
2018-12-07T10:27:21.257Z,86.30
2018-12-07T10:28:21.161Z,86.20
2018-12-07T10:29:21.149Z,85.89
2018-12-07T10:30:21.136Z,85.79
2018-12-07T10:31:21.124Z,86.10
2018-12-07T10:32:21.589Z,85.89
2018-12-07T10:33:21.104Z,85.69
2018-12-07T10:34:21.099Z,86.20
2018-12-07T10:35:21.089Z,86.00
2018-12-07T10:36:21.070Z,86.36
2018-12-07T10:37:21.072Z,85.69
2018-12-07T10:38:21.054Z,86.10
2018-12-07T10:39:21.039Z,85.59
2018-12-07T10:40:21.027Z,86.16
2018-12-07T10:41:21.013Z,85.45
2018-12-07T10:42:21.016Z,85.24
2018-12-07T10:43:21.041Z,85.24
2018-12-07T10:44:20.990Z,84.94
2018-12-07T10:45:20.975Z,85.35
2018-12-07T10:46:20.963Z,85.35
2018-12-07T10:47:20.960Z,85.14
2018-12-07T10:48:20.934Z,84.83
2018-12-07T10:49:20.924Z,85.04
2018-12-07T10:50:20.916Z,84.83
2018-12-07T10:51:20.908Z,84.63
2018-12-07T10:52:20.932Z,84.74
2018-12-07T10:53:20.879Z,84.83
2018-12-07T10:54:20.864Z,84.83
2018-12-07T10:55:20.857Z,84.63
2018-12-07T10:56:20.852Z,84.22
2018-12-07T10:57:20.846Z,84.42
2018-12-07T10:58:20.837Z,84.53
2018-12-07T10:59:20.811Z,84.42
2018-12-07T11:00:22.930Z,84.63
2018-12-07T11:01:20.791Z,84.94
2018-12-07T11:02:21.578Z,85.00
2018-12-07T11:03:20.780Z,84.53
2018-12-07T11:04:20.757Z,84.39
2018-12-07T11:05:22.366Z,84.90
2018-12-07T11:06:20.739Z,84.63
2018-12-07T11:07:20.723Z,83.92
2018-12-07T11:08:20.714Z,83.71
2018-12-07T11:09:20.712Z,83.57
2018-12-07T11:10:20.689Z,83.61
2018-12-07T11:11:20.678Z,83.61
2018-12-07T11:12:20.666Z,83.26
2018-12-07T11:13:20.675Z,82.96
2018-12-07T11:14:20.648Z,83.16
2018-12-07T11:15:20.637Z,82.96
2018-12-07T11:16:20.621Z,82.96
2018-12-07T11:17:20.609Z,82.86
2018-12-07T11:18:20.611Z,83.06
2018-12-07T11:19:20.589Z,82.86
2018-12-07T11:20:21.089Z,82.86
2018-12-07T11:21:20.565Z,82.71
2018-12-07T11:22:20.556Z,82.82
2018-12-07T11:23:20.554Z,82.71
2018-12-07T11:24:20.532Z,82.75
2018-12-07T11:25:20.523Z,82.96
2018-12-07T11:26:20.514Z,82.75
2018-12-07T11:27:20.497Z,82.61
2018-12-07T11:28:20.517Z,82.10
2018-12-07T11:29:20.478Z,82.41
2018-12-07T11:30:20.472Z,82.00
2018-12-07T11:31:20.453Z,82.41
2018-12-07T11:32:20.441Z,81.94
2018-12-07T11:33:20.427Z,82.10
2018-12-07T11:34:20.437Z,82.00
2018-12-07T11:35:20.409Z,82.45
2018-12-07T11:36:20.414Z,82.41
2018-12-07T11:37:20.395Z,82.21
2018-12-07T11:38:20.377Z,81.49
2018-12-07T11:39:20.375Z,82.10
2018-12-07T11:40:20.436Z,82.41
2018-12-07T11:41:20.420Z,81.94
2018-12-07T11:42:20.340Z,82.31
2018-12-07T11:43:20.345Z,81.84
2018-12-07T11:44:20.322Z,82.31
2018-12-07T11:45:20.491Z,82.14
2018-12-07T11:46:20.294Z,82.21
2018-12-07T11:47:20.295Z,82.55
2018-12-07T11:48:20.271Z,82.45
2018-12-07T11:49:20.292Z,82.31
2018-12-07T11:50:20.244Z,82.61
2018-12-07T11:51:20.233Z,82.61
2018-12-07T11:52:20.232Z,82.82
2018-12-07T11:53:20.221Z,82.71
2018-12-07T11:54:20.210Z,82.96
2018-12-07T11:55:20.200Z,82.75
2018-12-07T11:56:20.174Z,83.02
2018-12-07T11:57:20.169Z,82.96
2018-12-07T11:58:20.184Z,83.23
2018-12-07T11:59:20.151Z,83.26
2018-12-07T12:00:20.159Z,82.86
2018-12-07T12:01:20.119Z,82.96
2018-12-07T12:02:26.157Z,83.37
2018-12-07T12:03:21.104Z,83.63
2018-12-07T12:04:20.095Z,83.06
2018-12-07T12:05:20.094Z,83.87
2018-12-07T12:06:20.066Z,83.78
2018-12-07T12:07:20.052Z,83.47
2018-12-07T12:08:20.045Z,83.67
2018-12-07T12:09:20.031Z,83.67
2018-12-07T12:10:20.033Z,83.63
2018-12-07T12:11:20.012Z,83.43
2018-12-07T12:12:20.001Z,83.47
2018-12-07T12:13:19.988Z,83.47
2018-12-07T12:14:19.972Z,83.53
2018-12-07T12:15:19.977Z,83.67
2018-12-07T12:16:19.961Z,83.53
2018-12-07T12:17:19.937Z,83.78
2018-12-07T12:18:19.923Z,83.78
2018-12-07T12:19:19.921Z,83.87
2018-12-07T12:20:19.931Z,83.78
2018-12-07T12:21:19.902Z,84.49
2018-12-07T12:22:19.921Z,84.28
2018-12-07T12:23:19.881Z,84.59
2018-12-07T12:24:19.865Z,84.49
2018-12-07T12:25:19.888Z,84.28
2018-12-07T12:26:19.836Z,84.39
2018-12-07T12:27:19.845Z,84.39
2018-12-07T12:28:19.808Z,84.18
2018-12-07T12:29:19.811Z,84.49
2018-12-07T12:30:19.788Z,84.39
2018-12-07T12:31:19.803Z,84.49
2018-12-07T12:32:19.775Z,84.49
2018-12-07T12:33:19.795Z,84.69
2018-12-07T12:34:19.747Z,85.00
2018-12-07T12:35:21.484Z,85.41
2018-12-07T12:36:19.734Z,85.51
2018-12-07T12:37:19.710Z,85.92
2018-12-07T12:38:19.706Z,85.41
2018-12-07T12:39:19.685Z,86.36
2018-12-07T12:40:19.690Z,86.06
2018-12-07T12:41:19.676Z,86.06
2018-12-07T12:42:19.652Z,85.45
2018-12-07T12:43:19.638Z,85.92
2018-12-07T12:44:19.626Z,86.43
2018-12-07T12:45:19.612Z,85.82
2018-12-07T12:46:19.612Z,86.43
2018-12-07T12:47:19.592Z,86.43
2018-12-07T12:48:19.583Z,86.26
2018-12-07T12:49:19.565Z,86.22
2018-12-07T12:50:19.553Z,86.22
2018-12-07T12:51:19.558Z,86.36
2018-12-07T12:52:19.531Z,86.57